• Join FlightAware (Why Join?)
  • Login
  • US Flag 
05:40PM EST


 

Airport Tracker/Info


-or-


 

Live Flight TrackerFlight Track Log ✈ AAY876 ✈ 13-Apr-2014 ✈ KPIE - KRFD

Flight Track Log - Related Links

Times and Time Zones

All times are in EDT time to prevent confusion due to time zone crossing. See the AAY876 flight status page for this flight to view local times or setup timezone preferences in your user account.

Time Position Orientation Groundspeed Altitude Reporting Facility
EDT Latitude Longitude Course Direction KTS MPH feet Rate Location/Type
03:51PM 27.9333 -82.7000 19° North 184 212 800  Level Tampa TRACON
03:52PM 28.0167 -82.6667 19° North 246 283 3,300 1,800 Climbing Tampa TRACON
03:54PM 28.1394 -82.6994 347° North 300 345 6,900 1,380 Climbing Jacksonville Center
03:55PM 28.2144 -82.7278 342° North 300 345 7,100 60 Climbing Jacksonville Center
03:56PM 28.2917 -82.7489 346° North 288 331 7,100 1,080 Level Jacksonville Center
03:57PM 28.3711 -82.7675 348° North 288 331 9,300 1,980 Climbing Jacksonville Center
03:58PM 28.4567 -82.7839 350° North 294 338 11,100 1,500 Climbing Jacksonville Center
03:59PM 28.5569 -82.8075 348° North 325 374 12,300 1,440 Climbing Jacksonville Center
04:00PM 28.6653 -82.8333 348° North 363 418 14,000 1,860 Climbing Jacksonville Center
04:01PM 28.7761 -82.8569 349° North 390 449 16,100 1,920 Climbing Jacksonville Center
04:02PM 28.8908 -82.8903 346° North 413 475 17,900 1,500 Climbing Jacksonville Center
04:03PM 29.0119 -82.9117 351° North 424 488 19,100 1,560 Climbing Jacksonville Center
04:04PM 29.1308 -82.9425 347° North 430 495 21,100 1,440 Climbing Jacksonville Center
04:05PM 29.2539 -82.9664 350° North 435 501 22,000 1,320 Climbing Jacksonville Center
04:06PM 29.3772 -83.0044 345° North 440 506 23,800 1,800 Climbing Jacksonville Center
04:07PM 29.5147 -83.0311 350° North 452 520 25,600 1,500 Climbing Jacksonville Center
04:08PM 29.6339 -83.0694 344° North 437 503 26,900 1,320 Climbing Jacksonville Center
04:09PM 29.7403 -83.1247 336° Northwest 434 499 28,300 1,200 Climbing Jacksonville Center
04:10PM 29.8528 -83.1681 342° North 432 497 29,300 840 Climbing Jacksonville Center
04:11PM 29.9592 -83.2211 337° Northwest 420 483 30,000 300 Climbing Jacksonville Center
04:12PM 30.0675 -83.2669 340° North 413 475 30,000  Level Jacksonville Center
04:13PM 30.1697 -83.3178 337° Northwest 413 475 30,000  Level Jacksonville Center
04:14PM 30.2781 -83.3642 340° North 408 470 30,000  Level Jacksonville Center
04:15PM 30.3822 -83.4175 336° Northwest 413 475 30,000  Level Jacksonville Center
04:16PM 30.4908 -83.4639 340° North 413 475 30,000  Level Jacksonville Center
04:17PM 30.5928 -83.5153 337° Northwest 408 470 30,000  Level Jacksonville Center
04:18PM 30.7011 -83.5642 339° North 408 470 30,000  Level Jacksonville Center
04:19PM 30.8053 -83.6158 337° Northwest 408 470 30,000  Level Jacksonville Center
04:20PM 30.9114 -83.6650 338° Northwest 408 470 30,000  Level Jacksonville Center
04:21PM 31.0156 -83.7192 336° Northwest 413 475 30,000  Level Jacksonville Center
04:22PM 31.1236 -83.7664 339° North 413 475 30,000  Level Jacksonville Center
04:24PM 31.3250 -83.8639 338° Northwest 443 510 30,000  Level Atlanta Center
04:25PM 31.4314 -83.9197 336° Northwest 431 496 30,000  Level Atlanta Center
04:26PM 31.5400 -83.9633 341° North 419 482 30,000  Level Atlanta Center
04:27PM 31.6569 -83.9875 350° North 414 476 30,000  Level Atlanta Center
04:28PM 31.7694 -84.0194 346° North 414 476 30,000  Level Atlanta Center
04:29PM 31.8844 -84.0389 352° North 414 476 30,000  Level Atlanta Center
04:30PM 31.9844 -84.0683 346° North 414 476 30,000  Level Atlanta Center
04:31PM 32.1014 -84.0878 352° North 414 476 30,000  Level Atlanta Center
04:32PM 32.2142 -84.1175 347° North 414 476 30,000  Level Atlanta Center
04:33PM 32.3289 -84.1372 352° North 414 476 30,000  Level Atlanta Center
04:34PM 32.4417 -84.1669 347° North 414 476 30,000  Level Atlanta Center
04:35PM 32.5564 -84.1892 351° North 414 476 30,000  Level Atlanta Center
04:36PM 32.6711 -84.2214 347° North 414 476 30,000  Level Atlanta Center
04:37PM 32.7983 -84.2439 352° North 414 476 30,000  Level Atlanta Center
04:38PM 32.9111 -84.2764 346° North 414 476 30,000  Level Atlanta Center
04:39PM 33.0281 -84.3014 350° North 414 476 30,000  Level Atlanta Center
04:40PM 33.1322 -84.3267 349° North 414 476 30,000  Level Atlanta Center
04:41PM 33.2492 -84.3492 351° North 419 482 30,000  Level Atlanta Center
04:42PM 33.3639 -84.3794 348° North 419 482 30,000  Level Atlanta Center
04:43PM 33.4806 -84.4000 352° North 419 482 30,000  Level Atlanta Center
04:44PM 33.5828 -84.4303 346° North 419 482 30,000  Level Atlanta Center
04:45PM 33.7100 -84.4558 351° North 419 482 30,000  Level Atlanta Center
04:46PM 33.8247 -84.4889 347° North 414 476 30,000  Level Atlanta Center
04:47PM 33.9372 -84.5119 350° North 414 476 30,000  Level Atlanta Center
04:48PM 34.0583 -84.5453 347° North 420 483 30,000  Level Atlanta Center
04:49PM 34.1792 -84.5686 351° North 437 503 30,000  Level Atlanta Center
04:50PM 34.2919 -84.5994 347° North 427 491 30,000  Level Atlanta Center
04:51PM 34.4086 -84.6231 351° North 427 491 30,000  Level Atlanta Center
04:52PM 34.5275 -84.6564 347° North 432 497 30,000  Level Atlanta Center
04:53PM 34.6442 -84.6800 351° North 426 490 30,000  Level Atlanta Center
04:54PM 34.7567 -84.7164 345° North 421 484 30,000  Level Atlanta Center
04:55PM 34.8756 -84.7400 351° North 421 484 30,000  Level Atlanta Center
04:56PM 34.9900 -84.7739 346° North 421 484 30,000  Level Atlanta Center
04:57PM 35.1067 -84.7978 350° North 427 491 30,000  Level Atlanta Center
04:58PM 35.2233 -84.8319 347° North 427 491 30,000  Level Atlanta Center
04:59PM 35.3400 -84.8586 349° North 427 491 30,000  Level Atlanta Center
05:00PM 35.4586 -84.8903 348° North 427 491 30,000  Level Atlanta Center
05:01PM 35.5753 -84.9169 349° North 427 491 30,000  Level Atlanta Center
05:02PM 35.6919 -84.9517 346° North 432 497 30,000  Level Atlanta Center
05:03PM 35.8253 -84.9786 351° North 426 490 30,000  Level Atlanta Center
05:04PM 35.9008 -84.9994 347° North 435 501 30,000  Level Indianapolis Center
05:05PM 36.0161 -85.0272 349° North 436 502 30,000  Level Indianapolis Center
05:06PM 36.1336 -85.0608 347° North 438 504 30,000  Level Indianapolis Center
05:07PM 36.2528 -85.0897 349° North 434 499 30,000  Level Indianapolis Center
05:08PM 36.3719 -85.1211 348° North 437 503 30,000  Level Indianapolis Center
05:09PM 36.5158 -85.1553 349° North 437 503 30,000  Level Indianapolis Center
05:10PM 36.6328 -85.1917 346° North 436 502 30,000  Level Indianapolis Center
05:11PM 36.7536 -85.2164 351° North 436 502 30,000  Level Indianapolis Center
05:12PM 36.8708 -85.2533 346° North 436 502 30,000  Level Indianapolis Center
05:13PM 36.9922 -85.2800 350° North 437 503 30,000  Level Indianapolis Center
05:14PM 37.1136 -85.3169 346° North 438 504 30,000  Level Indianapolis Center
05:15PM 37.2350 -85.3436 350° North 439 505 30,000  Level Indianapolis Center
05:16PM 37.3736 -85.3858 346° North 440 506 30,000  Level Indianapolis Center
05:17PM 37.4964 -85.4122 350° North 442 509 30,000  Level Indianapolis Center
05:18PM 37.6178 -85.4500 346° North 444 511 30,000  Level Indianapolis Center
05:19PM 37.7406 -85.4769 350° North 444 511 30,000  Level Indianapolis Center
05:20PM 37.8489 -85.5106 346° North 444 511 30,000  Level Indianapolis Center
05:21PM 37.9933 -85.5453 349° North 441 507 30,000  Level Indianapolis Center
05:22PM 38.1125 -85.5867 345° North 441 507 30,000  Level Indianapolis Center
05:23PM 38.2183 -85.6553 333° Northwest 435 501 30,000  Level Indianapolis Center
05:24PM 38.3333 -85.7128 339° North 435 501 30,000  Level Indianapolis Center
05:25PM 38.4408 -85.7761 335° Northwest 433 498 30,000  Level Indianapolis Center
05:26PM 38.5486 -85.8403 335° Northwest 430 495 30,000  Level Indianapolis Center
05:27PM 38.6575 -85.9039 335° Northwest 430 495 30,000  Level Indianapolis Center
05:28PM 38.7881 -85.9825 335° Northwest 430 495 30,000  Level Indianapolis Center
05:29PM 38.8958 -86.0486 334° Northwest 432 497 30,000  Level Indianapolis Center
05:30PM 39.0042 -86.1136 335° Northwest 432 497 30,000  Level Indianapolis Center
05:32PM 39.1136 -86.1783 335° Northwest 433 498 30,000 -420 Level Indianapolis Center
05:36PM 39.5711 -86.4583 334° Northwest 431 496 28,000 -300 Descending Indianapolis Center
05:38PM 39.7173 -86.5443 335° Northwest  Level FlightAware Approximate
05:39PM 39.9058 -86.6631 324° Northwest 438 504 28,000  Level Indianapolis Center
05:43PM 40.0645 -86.9344 324° Northwest  Level Estimated
05:45PM 40.4194 -86.9830 334° Northwest  Level FlightAware Approximate
05:45PM 40.4833 -87.0239 334° Northwest  Level FlightAware Approximate
05:46PM 40.5189 -87.0467 334° Northwest  Level FlightAware Approximate
05:52PM 41.0563 -87.7053 315° West  Level FlightAware Approximate
05:53PM 41.1352 -87.8087 315° West  Level FlightAware Approximate
05:54PM 41.2168 -87.9084 319° Northwest  Level FlightAware Approximate
05:55PM 41.2987 -88.0078 316° Northwest  Level FlightAware Approximate
05:56PM 41.3787 -88.1107 316° Northwest  Level FlightAware Approximate
05:57PM 41.4614 -88.2103 318° Northwest  Level FlightAware Approximate
05:58PM 41.5344 -88.3214 286° West  Level FlightAware Approximate
05:59PM 41.5651 -88.4645 286° West  Level FlightAware Approximate
06:00PM 41.5866 -88.6097 280° West  Level FlightAware Approximate
06:01PM 41.5781 -88.7581 266° West  Level FlightAware Approximate
06:02PM 41.5693 -88.9066 266° West  Level FlightAware Approximate
06:03PM 41.5990 -89.0470 294° West  Level FlightAware Approximate
06:04PM 41.6445 -89.1834 294° West  Level FlightAware Approximate
06:05PM 41.7090 -89.2940 26° Northeast  Level FlightAware Approximate
06:06PM 41.8117 -89.2358 20° North  Level FlightAware Approximate
06:07PM 41.9204 -89.2022 13° North  Level FlightAware Approximate
06:08PM 42.0247 -89.1543 20° North  Level FlightAware Approximate
06:09PM 42.1293 -89.1020 20° North  Level FlightAware Approximate
06:10PM 42.1833 -89.0833 14° North  Level FlightAware Approximate
06:11PM 42.1954 -89.0972 14° North  Level Estimated
06:12PM 42.1954 -89.0972 14° North  Level Estimated
06:13PM 42.1954 -89.0972 14° North  Level Estimated
06:14PM 42.1954 -89.0972 14° North  Level Estimated
06:15PM 42.1954 -89.0972 14° North  Level Estimated
06:16PM 42.1954 -89.0972 14° North  Level Estimated
06:17PM 42.1954 -89.0972 14° North  Level Estimated
06:18PM 42.1954 -89.0972 14° North  Level Estimated
06:19PM 42.1954 -89.0972 14° North  Level Estimated
06:20PM 42.1954 -89.0972 14° North  Level Estimated
06:21PM 42.1954 -89.0972 14° North  Level Estimated
06:22PM 42.1954 -89.0972 14° North  Level Estimated